Time;durP1;ratioP1;P1;durP2;ratioP2;P2;SDS_P1;SDS_P2;PMS_P1;PMS_P2;Temp;Humidity;BMP_temperature;BMP_pressure;BME280_temperature;BME280_humidity;BME280_pressure;Samples;Min_cycle;Max_cycle;Signal;HPM_P1;HPM_P2
2024/02/13 00:00:32;;;;;;;3.40;1.50;;;4.60;11.40;;;;;;5013748;28;20206;-71
2024/02/13 00:02:58;;;;;;;2.80;1.30;;;4.50;11.30;;;;;;5031918;28;20293;-71
2024/02/13 00:05:26;;;;;;;4.73;1.70;;;4.50;11.30;;;;;;5014463;28;20433;-71
2024/02/13 00:07:52;;;;;;;5.83;1.90;;;4.40;11.20;;;;;;5031134;28;20195;-71
2024/02/13 00:10:21;;;;;;;3.80;1.47;;;4.40;11.90;;;;;;5031378;28;20429;-71
2024/02/13 00:12:46;;;;;;;4.00;2.07;;;4.40;12.10;;;;;;5013696;28;20429;-71
2024/02/13 00:15:20;;;;;;;6.77;2.10;;;4.40;12.10;;;;;;5031625;28;20655;-71
2024/02/13 00:17:45;;;;;;;3.73;1.40;;;4.30;13.30;;;;;;5031400;28;20289;-71
2024/02/13 00:20:14;;;;;;;2.90;1.50;;;4.20;13.10;;;;;;5031404;28;20540;-71
2024/02/13 00:22:40;;;;;;;6.90;2.50;;;4.10;13.40;;;;;;5031520;28;20563;-71
2024/02/13 00:25:08;;;;;;;3.50;1.70;;;4.00;14.30;;;;;;5031245;28;20445;-71
2024/02/13 00:27:35;;;;;;;3.70;1.50;;;3.90;15.20;;;;;;5031105;28;20448;-71
2024/02/13 00:30:04;;;;;;;3.50;2.13;;;3.90;15.50;;;;;;5031240;28;20678;-71
2024/02/13 00:32:30;;;;;;;6.20;1.77;;;3.80;15.60;;;;;;5031329;28;20416;-71
2024/02/13 00:34:56;;;;;;;4.67;1.47;;;3.80;16.10;;;;;;5013467;28;20784;-70
2024/02/13 00:37:23;;;;;;;4.07;2.07;;;3.70;16.80;;;;;;5013216;28;20576;-71
2024/02/13 00:39:49;;;;;;;2.88;1.48;;;3.60;16.60;;;;;;5031177;28;20173;-71
2024/02/13 00:42:15;;;;;;;3.83;2.47;;;3.60;17.60;;;;;;5031092;28;20278;-71
2024/02/13 00:44:42;;;;;;;4.07;1.73;;;3.60;18.10;;;;;;5031386;28;20209;-71
2024/02/13 00:47:08;;;;;;;4.00;1.33;;;3.50;18.20;;;;;;5031221;28;20197;-71
2024/02/13 00:49:34;;;;;;;3.90;2.00;;;3.40;19.70;;;;;;5031502;28;20596;-70
2024/02/13 00:52:01;;;;;;;4.13;1.77;;;3.50;19.20;;;;;;5031224;28;20660;-71
2024/02/13 00:54:27;;;;;;;4.40;1.80;;;3.30;20.10;;;;;;5031235;28;20259;-70
2024/02/13 00:56:53;;;;;;;5.10;1.50;;;3.30;20.80;;;;;;5013706;28;20866;-70
2024/02/13 00:59:19;;;;;;;2.27;1.70;;;3.30;21.60;;;;;;5031654;28;20431;-70
2024/02/13 01:01:45;;;;;;;4.30;1.30;;;3.30;21.40;;;;;;5031172;28;20570;-70
2024/02/13 01:04:11;;;;;;;7.20;2.40;;;3.30;22.10;;;;;;5031136;28;20924;-71
2024/02/13 01:06:37;;;;;;;7.05;3.67;;;3.30;21.80;;;;;;5031410;28;20173;-72
2024/02/13 01:09:03;;;;;;;6.27;3.50;;;3.40;22.60;;;;;;5030831;28;20682;-69
2024/02/13 01:11:29;;;;;;;3.40;1.80;;;3.50;23.10;;;;;;5031241;28;20179;-69
2024/02/13 01:13:55;;;;;;;3.03;1.60;;;3.50;23.30;;;;;;5031110;28;20505;-70
2024/02/13 01:16:22;;;;;;;3.40;2.00;;;3.60;23.40;;;;;;5013191;28;20533;-70
2024/02/13 01:18:51;;;;;;;3.10;1.70;;;3.70;23.40;;;;;;5013260;28;20562;-71
2024/02/13 01:21:17;;;;;;;4.93;2.33;;;3.80;22.60;;;;;;5034537;28;20879;-70
2024/02/13 01:23:44;;;;;;;4.30;1.65;;;3.90;21.00;;;;;;5034611;28;20417;-71
2024/02/13 01:26:10;;;;;;;2.77;1.20;;;3.90;22.00;;;;;;5034805;28;20247;-71
2024/02/13 01:28:35;;;;;;;4.10;2.60;;;4.10;21.10;;;;;;5034308;28;20759;-71
2024/02/13 01:31:02;;;;;;;2.70;1.40;;;4.20;21.30;;;;;;5034719;28;20440;-71
2024/02/13 01:33:28;;;;;;;2.50;1.50;;;4.30;19.70;;;;;;5034559;28;20262;-70
2024/02/13 01:35:54;;;;;;;3.93;2.03;;;4.40;19.80;;;;;;5034561;28;20413;-70
2024/02/13 01:38:20;;;;;;;3.30;1.70;;;4.40;19.80;;;;;;5034124;28;20441;-70
2024/02/13 01:40:46;;;;;;;4.30;2.23;;;4.50;18.90;;;;;;5016510;28;20526;-71
2024/02/13 01:43:14;;;;;;;15.50;2.23;;;4.60;18.90;;;;;;5034209;28;20179;-71
2024/02/13 01:45:40;;;;;;;4.57;1.90;;;4.60;18.50;;;;;;5035397;28;20552;-71
2024/02/13 01:48:07;;;;;;;2.70;1.60;;;4.60;18.80;;;;;;5055114;22;20520;-70
2024/02/13 01:50:36;;;;;;;3.33;1.90;;;4.70;18.00;;;;;;5034617;28;20712;-69
2024/02/13 01:53:02;;;;;;;5.80;1.97;;;4.80;16.50;;;;;;5033299;28;20425;-70
2024/02/13 01:55:29;;;;;;;4.50;2.23;;;4.80;16.40;;;;;;5034404;28;20415;-71
2024/02/13 01:57:57;;;;;;;2.70;1.57;;;4.90;15.80;;;;;;5034023;28;20491;-70
2024/02/13 02:00:24;;;;;;;3.60;1.70;;;4.90;15.80;;;;;;5016537;28;20458;-72
2024/02/13 02:02:50;;;;;;;4.17;1.60;;;5.00;15.90;;;;;;5032766;28;20674;-69
2024/02/13 02:05:16;;;;;;;4.33;1.80;;;5.00;15.80;;;;;;5034133;28;20445;-69
2024/02/13 02:07:42;;;;;;;3.33;1.70;;;5.00;14.40;;;;;;5034269;28;20432;-70
2024/02/13 02:10:08;;;;;;;4.83;1.77;;;4.90;15.80;;;;;;5033621;28;20176;-70
2024/02/13 02:12:39;;;;;;;3.70;2.00;;;5.00;15.60;;;;;;5016151;28;20182;-69
2024/02/13 02:15:06;;;;;;;4.87;2.40;;;5.00;14.30;;;;;;5033801;28;20710;-70
2024/02/13 02:17:31;;;;;;;7.00;2.00;;;4.90;15.20;;;;;;5033509;28;20458;-70
2024/02/13 02:19:58;;;;;;;4.87;1.70;;;4.90;15.20;;;;;;5033344;28;20430;-69
2024/02/13 02:22:23;;;;;;;5.53;2.00;;;5.00;15.20;;;;;;5015528;28;20688;-69
2024/02/13 02:24:49;;;;;;;5.37;2.57;;;5.00;15.20;;;;;;5033574;28;20434;-68
2024/02/13 02:27:16;;;;;;;10.67;1.87;;;5.10;15.20;;;;;;5033646;28;20503;-69
2024/02/13 02:29:41;;;;;;;5.50;2.50;;;5.10;14.60;;;;;;5033313;28;20406;-69
2024/02/13 02:32:10;;;;;;;3.27;1.50;;;5.20;15.30;;;;;;5032877;28;20900;-70
2024/02/13 02:34:35;;;;;;;2.43;1.13;;;5.20;14.50;;;;;;5033207;28;20268;-70
2024/02/13 02:37:01;;;;;;;2.80;1.60;;;5.20;14.50;;;;;;5033576;28;20457;-70
2024/02/13 02:39:28;;;;;;;7.10;2.27;;;5.30;15.00;;;;;;5033217;28;20221;-69
2024/02/13 02:41:53;;;;;;;3.37;1.60;;;5.30;15.10;;;;;;5033175;28;20458;-69
2024/02/13 02:44:19;;;;;;;3.93;1.73;;;5.30;15.20;;;;;;5033155;28;20760;-69
2024/02/13 02:46:47;;;;;;;9.03;2.20;;;5.40;13.90;;;;;;5015119;28;20681;-69
2024/02/13 02:49:13;;;;;;;3.43;1.50;;;5.40;13.90;;;;;;5032910;28;20215;-68
2024/02/13 02:51:38;;;;;;;4.73;1.90;;;5.50;13.40;;;;;;5032977;28;20423;-68
2024/02/13 02:54:05;;;;;;;7.93;3.63;;;5.50;13.20;;;;;;5033012;28;20192;-69
2024/02/13 02:56:31;;;;;;;3.20;1.80;;;5.50;13.40;;;;;;5032898;28;21008;-69
2024/02/13 02:58:56;;;;;;;11.07;3.20;;;5.50;13.00;;;;;;5032510;28;20517;-68
2024/02/13 03:01:22;;;;;;;3.43;1.97;;;5.50;12.70;;;;;;5032529;28;20223;-69
2024/02/13 03:03:50;;;;;;;2.73;1.63;;;5.60;12.80;;;;;;5032740;28;20203;-69
2024/02/13 03:06:16;;;;;;;3.30;1.77;;;5.60;12.10;;;;;;5015050;28;20190;-69
2024/02/13 03:08:42;;;;;;;3.20;1.80;;;5.50;11.90;;;;;;5032581;28;20842;-69
2024/02/13 03:11:08;;;;;;;5.33;1.80;;;5.50;11.90;;;;;;5032699;28;20453;-69
2024/02/13 03:13:34;;;;;;;7.80;2.10;;;5.40;11.90;;;;;;5032853;28;20192;-69
2024/02/13 03:16:00;;;;;;;6.17;2.27;;;5.30;11.80;;;;;;5032536;28;20498;-70
2024/02/13 03:18:26;;;;;;;6.90;1.70;;;5.20;13.60;;;;;;5032335;28;20248;-68
2024/02/13 03:20:52;;;;;;;4.37;2.00;;;5.40;12.90;;;;;;5032462;28;20203;-68
2024/02/13 03:23:17;;;;;;;4.03;2.07;;;5.40;13.20;;;;;;5014872;28;20426;-70
2024/02/13 03:25:43;;;;;;;4.37;2.27;;;5.40;13.10;;;;;;5032449;28;20175;-70
2024/02/13 03:28:09;;;;;;;5.10;2.23;;;5.50;12.90;;;;;;5032222;28;20663;-69
2024/02/13 03:30:34;;;;;;;7.63;2.10;;;5.40;12.90;;;;;;5032470;28;20296;-69
2024/02/13 03:33:00;;;;;;;4.37;1.83;;;5.40;13.10;;;;;;5032243;28;20288;-69
2024/02/13 03:35:26;;;;;;;5.23;1.53;;;5.40;13.60;;;;;;5032531;28;20179;-70
2024/02/13 03:37:52;;;;;;;5.10;1.80;;;5.40;13.90;;;;;;5031939;28;20449;-69
2024/02/13 03:40:17;;;;;;;4.90;1.33;;;5.40;14.00;;;;;;5032052;28;20544;-69
2024/02/13 03:42:44;;;;;;;4.13;1.70;;;5.40;14.10;;;;;;5031375;28;20270;-69
2024/02/13 03:45:10;;;;;;;2.80;1.73;;;5.40;14.20;;;;;;5032038;28;20213;-70
2024/02/13 03:47:36;;;;;;;9.77;3.03;;;5.40;13.80;;;;;;5031785;28;20454;-69
2024/02/13 03:50:02;;;;;;;5.67;1.97;;;5.30;13.00;;;;;;5032316;28;20451;-70
2024/02/13 03:52:28;;;;;;;3.00;1.90;;;5.20;13.90;;;;;;5031808;28;20457;-69
2024/02/13 03:54:54;;;;;;;3.37;1.53;;;5.10;14.00;;;;;;5031623;28;20505;-70
2024/02/13 03:57:19;;;;;;;4.50;1.70;;;5.00;14.40;;;;;;5031818;28;20493;-69
2024/02/13 03:59:45;;;;;;;3.60;1.70;;;4.90;15.10;;;;;;5031732;28;20183;-69
2024/02/13 04:02:11;;;;;;;3.50;1.77;;;4.80;15.00;;;;;;5031436;28;20246;-70
2024/02/13 04:04:36;;;;;;;6.30;1.90;;;4.70;15.70;;;;;;5031715;28;20168;-69
2024/02/13 04:07:04;;;;;;;5.70;2.30;;;4.60;16.50;;;;;;5031686;28;20214;-69
2024/02/13 04:09:34;;;;;;;3.33;1.90;;;4.50;17.10;;;;;;5031536;28;20206;-69
2024/02/13 04:11:59;;;;;;;3.70;1.90;;;4.40;17.70;;;;;;5031559;28;20418;-69
2024/02/13 04:14:27;;;;;;;3.50;2.10;;;4.40;18.40;;;;;;5031679;28;20774;-68
2024/02/13 04:16:52;;;;;;;3.33;1.37;;;4.30;18.80;;;;;;5031514;28;20290;-70
2024/02/13 04:19:18;;;;;;;3.40;2.20;;;4.20;18.60;;;;;;5031310;28;20647;-69
2024/02/13 04:21:44;;;;;;;5.83;2.27;;;4.10;19.60;;;;;;5031358;28;20581;-69
2024/02/13 04:24:10;;;;;;;2.40;1.43;;;4.00;20.00;;;;;;5031399;28;20724;-70
2024/02/13 04:26:40;;;;;;;3.70;1.43;;;4.00;19.50;;;;;;5031509;28;20445;-69
2024/02/13 04:29:06;;;;;;;3.07;1.87;;;3.90;20.40;;;;;;5012994;28;20446;-69
2024/02/13 04:31:31;;;;;;;4.10;1.63;;;3.80;21.50;;;;;;5031335;28;20420;-69
2024/02/13 04:33:57;;;;;;;3.80;1.80;;;3.70;22.90;;;;;;5031425;28;20447;-69
2024/02/13 04:36:23;;;;;;;5.00;1.50;;;3.70;22.50;;;;;;5031169;28;20185;-68
2024/02/13 04:38:49;;;;;;;4.43;1.30;;;3.60;23.40;;;;;;5031006;28;20285;-68
2024/02/13 04:41:17;;;;;;;3.13;1.40;;;3.50;24.00;;;;;;5031189;28;21014;-68
2024/02/13 04:43:43;;;;;;;3.23;1.83;;;3.50;25.00;;;;;;5031112;28;20178;-70
2024/02/13 04:46:09;;;;;;;5.53;1.80;;;3.40;24.20;;;;;;5031034;28;20490;-69
2024/02/13 04:48:34;;;;;;;5.53;1.30;;;3.40;25.30;;;;;;5030924;28;20321;-68
2024/02/13 04:51:01;;;;;;;4.50;1.73;;;3.30;25.40;;;;;;5012773;28;20244;-69
2024/02/13 04:53:28;;;;;;;5.70;2.00;;;3.30;25.00;;;;;;5030702;28;20189;-68
2024/02/13 04:55:55;;;;;;;6.30;1.75;;;3.20;25.90;;;;;;5034391;28;20218;-70
2024/02/13 04:58:23;;;;;;;6.00;1.70;;;3.10;25.50;;;;;;5034728;28;20196;-70
2024/02/13 05:00:51;;;;;;;2.70;1.25;;;3.00;27.10;;;;;;5034880;28;20252;-70
2024/02/13 05:03:25;;;;;;;2.30;1.25;;;3.00;27.10;;;;;;5034810;28;20179;-70
2024/02/13 05:08:36;;;;;;;3.92;1.75;;;2.90;27.00;;;;;;5034528;28;20253;-70
2024/02/13 05:11:02;;;;;;;5.15;2.03;;;2.90;28.70;;;;;;5034519;28;20193;-70
2024/02/13 05:13:31;;;;;;;7.37;2.90;;;2.80;28.30;;;;;;5034830;28;20280;-70
2024/02/13 05:15:58;;;;;;;3.67;1.92;;;2.80;28.90;;;;;;5034275;28;20426;-70
2024/02/13 05:18:24;;;;;;;4.60;2.72;;;2.70;29.20;;;;;;5034249;28;20205;-70
2024/02/13 05:20:50;;;;;;;3.00;1.80;;;2.70;29.60;;;;;;5016611;28;20196;-71
2024/02/13 05:23:16;;;;;;;3.67;2.25;;;2.70;30.30;;;;;;5034435;28;20188;-71
2024/02/13 05:25:41;;;;;;;4.63;2.37;;;2.60;31.20;;;;;;5034390;28;20637;-70
2024/02/13 05:28:07;;;;;;;4.83;2.37;;;2.60;30.40;;;;;;5016210;28;20810;-71
2024/02/13 05:30:32;;;;;;;4.50;2.37;;;2.60;31.00;;;;;;5033990;28;20196;-69
2024/02/13 05:32:58;;;;;;;6.77;2.10;;;2.50;31.40;;;;;;5034238;28;20203;-71
2024/02/13 05:35:24;;;;;;;2.90;2.07;;;2.50;32.60;;;;;;5034164;28;20533;-70
2024/02/13 05:37:51;;;;;;;3.73;1.93;;;2.50;33.70;;;;;;5033986;28;20570;-72
2024/02/13 05:40:17;;;;;;;2.25;1.40;;;2.50;33.40;;;;;;5014556;28;20460;-70
2024/02/13 05:42:44;;;;;;;7.53;2.40;;;2.40;34.20;;;;;;5017760;28;20181;-70
2024/02/13 05:45:10;;;;;;;3.47;2.30;;;2.50;34.00;;;;;;5034011;28;20537;-71
2024/02/13 05:47:39;;;;;;;5.68;2.88;;;2.40;33.40;;;;;;5033695;28;20225;-70
2024/02/13 05:50:07;;;;;;;3.97;2.17;;;2.40;34.20;;;;;;5033820;28;20166;-71
2024/02/13 05:52:37;;;;;;;7.68;2.08;;;2.40;34.50;;;;;;5015793;28;20713;-70
2024/02/13 05:55:04;;;;;;;4.80;2.65;;;2.30;34.90;;;;;;5033865;28;20664;-70
2024/02/13 05:57:31;;;;;;;5.30;2.38;;;2.30;33.90;;;;;;5033224;28;20173;-69
2024/02/13 05:59:56;;;;;;;4.40;2.17;;;2.30;34.00;;;;;;5015114;28;20209;-71
2024/02/13 06:02:22;;;;;;;5.43;2.50;;;2.20;34.30;;;;;;5033373;28;20213;-72
2024/02/13 06:04:49;;;;;;;2.80;1.70;;;2.20;35.80;;;;;;5033368;28;20474;-71
2024/02/13 06:07:14;;;;;;;4.70;1.98;;;2.20;36.20;;;;;;5031941;28;20267;-72
2024/02/13 06:09:40;;;;;;;4.50;2.23;;;2.20;35.80;;;;;;5033127;28;20206;-70
2024/02/13 06:12:06;;;;;;;5.57;2.50;;;2.20;37.10;;;;;;5033286;28;20180;-71
2024/02/13 06:14:32;;;;;;;8.25;2.70;;;2.30;37.90;;;;;;5033226;28;20646;-70
2024/02/13 06:16:58;;;;;;;5.10;2.30;;;2.30;38.90;;;;;;5033123;28;20183;-69
2024/02/13 06:19:24;;;;;;;8.50;3.23;;;2.50;40.30;;;;;;5032863;28;20209;-69
2024/02/13 06:21:50;;;;;;;4.93;2.80;;;2.50;39.00;;;;;;5015220;28;20202;-70
2024/02/13 06:24:16;;;;;;;9.80;2.00;;;2.60;39.70;;;;;;5033150;28;20172;-70
2024/02/13 06:26:43;;;;;;;5.80;3.57;;;2.60;38.00;;;;;;5033007;28;20179;-69
2024/02/13 06:29:08;;;;;;;8.45;2.95;;;2.60;36.20;;;;;;5032943;28;20222;-69
2024/02/13 06:31:34;;;;;;;5.10;2.67;;;2.60;35.10;;;;;;5015152;28;20221;-70
2024/02/13 06:33:59;;;;;;;5.40;3.20;;;2.50;34.10;;;;;;5032817;28;20190;-70
2024/02/13 06:36:26;;;;;;;9.53;4.27;;;2.50;32.80;;;;;;5033414;28;20185;-69
2024/02/13 06:38:52;;;;;;;7.40;3.63;;;2.40;32.70;;;;;;5032624;28;20281;-69
2024/02/13 06:41:18;;;;;;;15.32;5.95;;;2.40;33.00;;;;;;5032939;28;20204;-69
2024/02/13 06:43:44;;;;;;;11.27;4.80;;;2.40;34.00;;;;;;5032400;28;20324;-69
2024/02/13 06:46:10;;;;;;;6.72;4.70;;;2.30;34.40;;;;;;5014648;28;20272;-68
2024/02/13 06:48:35;;;;;;;3.93;3.53;;;2.30;34.70;;;;;;5032297;28;20261;-70
2024/02/13 06:51:01;;;;;;;4.10;3.00;;;2.30;35.20;;;;;;5032505;28;20178;-70
2024/02/13 06:53:27;;;;;;;6.30;3.80;;;2.20;35.80;;;;;;5032534;28;20180;-69
2024/02/13 06:55:53;;;;;;;12.07;4.55;;;2.20;35.80;;;;;;5014971;28;20193;-70
2024/02/13 06:58:18;;;;;;;9.57;4.17;;;2.20;35.80;;;;;;5031832;28;20229;-69
2024/02/13 07:00:44;;;;;;;9.23;3.97;;;2.20;36.20;;;;;;5014357;28;20197;-69
2024/02/13 07:03:10;;;;;;;5.23;4.00;;;2.20;37.00;;;;;;5014775;28;20218;-70
2024/02/13 07:05:37;;;;;;;4.67;3.13;;;2.20;36.00;;;;;;5032216;28;20234;-70
2024/02/13 07:08:02;;;;;;;3.85;3.30;;;2.20;36.90;;;;;;5032106;28;20733;-69
2024/02/13 07:10:28;;;;;;;8.20;5.23;;;2.30;37.70;;;;;;5032160;28;20194;-69
2024/02/13 07:12:55;;;;;;;7.83;4.70;;;2.30;37.40;;;;;;5031890;28;20191;-69
2024/02/13 07:15:21;;;;;;;9.40;4.80;;;2.40;37.00;;;;;;5031736;28;20602;-69
2024/02/13 07:17:46;;;;;;;10.13;5.00;;;2.40;37.40;;;;;;5031795;28;20255;-69
2024/02/13 07:20:12;;;;;;;7.37;4.73;;;2.40;35.90;;;;;;5031876;28;20554;-70
2024/02/13 07:22:39;;;;;;;15.57;5.43;;;2.50;36.00;;;;;;5032132;28;20544;-70
2024/02/13 07:25:08;;;;;;;18.08;5.57;;;2.50;36.00;;;;;;5032305;28;20207;-69
2024/02/13 07:27:40;;;;;;;11.48;6.30;;;2.50;36.60;;;;;;5031571;28;20260;-70
2024/02/13 07:30:07;;;;;;;8.23;4.97;;;2.60;36.90;;;;;;5014140;28;20178;-69
2024/02/13 07:32:36;;;;;;;16.33;4.63;;;2.60;36.80;;;;;;5032044;28;20166;-69
2024/02/13 07:35:04;;;;;;;9.65;4.00;;;2.80;36.30;;;;;;5032080;28;20670;-71
2024/02/13 07:37:31;;;;;;;6.45;3.75;;;2.90;36.40;;;;;;5014086;28;20591;-70
2024/02/13 07:39:57;;;;;;;9.98;3.50;;;3.00;35.20;;;;;;5032082;28;20178;-69
2024/02/13 07:42:25;;;;;;;11.60;4.65;;;3.10;33.40;;;;;;5031650;28;20204;-71
2024/02/13 07:44:51;;;;;;;7.72;3.40;;;3.20;32.00;;;;;;5027778;28;20188;-69
2024/02/13 07:47:17;;;;;;;12.15;4.18;;;3.20;31.50;;;;;;5028062;28;20205;-68
2024/02/13 07:49:43;;;;;;;6.50;3.57;;;3.30;30.70;;;;;;5023581;22;20221;-70
2024/02/13 07:52:12;;;;;;;5.53;3.57;;;3.40;29.70;;;;;;5007152;28;20436;-71
2024/02/13 07:54:37;;;;;;;4.80;3.47;;;3.40;28.80;;;;;;5007758;28;20214;-71
2024/02/13 07:57:03;;;;;;;5.33;3.70;;;3.50;29.40;;;;;;5007194;28;20870;-71
2024/02/13 07:59:29;;;;;;;6.53;3.43;;;3.60;27.40;;;;;;4991757;28;20193;-71
2024/02/13 08:01:55;;;;;;;8.80;3.20;;;3.70;26.20;;;;;;4988093;28;20284;-70
2024/02/13 08:04:21;;;;;;;4.15;2.78;;;3.80;25.90;;;;;;4986995;28;20179;-70
2024/02/13 08:06:47;;;;;;;11.47;3.13;;;4.00;26.50;;;;;;4986882;28;20190;-72
2024/02/13 08:09:14;;;;;;;5.70;3.50;;;4.20;25.10;;;;;;4970358;28;20533;-71
2024/02/13 08:11:41;;;;;;;5.97;3.27;;;4.30;23.90;;;;;;4987663;28;20211;-71
2024/02/13 08:14:09;;;;;;;6.80;3.30;;;4.40;21.40;;;;;;4970159;28;20511;-70
2024/02/13 08:16:35;;;;;;;5.30;3.03;;;4.60;20.10;;;;;;4987574;28;20526;-71
2024/02/13 08:19:01;;;;;;;5.53;3.40;;;4.80;20.00;;;;;;4989846;28;20549;-71
2024/02/13 08:21:26;;;;;;;7.37;4.47;;;5.00;18.30;;;;;;4988500;28;20238;-72
2024/02/13 08:23:52;;;;;;;6.23;3.90;;;5.10;16.30;;;;;;5006791;28;20524;-71
2024/02/13 08:26:17;;;;;;;4.77;3.17;;;5.20;15.90;;;;;;4989139;28;20274;-71
2024/02/13 08:28:44;;;;;;;6.30;3.20;;;5.40;16.20;;;;;;5002752;28;20255;-71
2024/02/13 08:31:10;;;;;;;5.23;3.13;;;5.60;13.30;;;;;;4995162;28;20184;-71
2024/02/13 08:33:36;;;;;;;6.07;3.50;;;5.70;12.80;;;;;;5007297;28;20526;-69
2024/02/13 08:36:02;;;;;;;3.30;2.20;;;5.80;12.10;;;;;;5005396;28;20858;-68
2024/02/13 08:38:28;;;;;;;4.20;2.67;;;5.90;11.00;;;;;;5005193;28;20210;-69
2024/02/13 08:40:54;;;;;;;6.73;2.63;;;5.90;11.50;;;;;;4997676;28;20465;-69
2024/02/13 08:43:21;;;;;;;6.83;3.63;;;5.90;9.10;;;;;;4999714;28;20419;-68
2024/02/13 08:45:47;;;;;;;3.97;2.17;;;5.90;8.00;;;;;;5011328;28;20177;-68
2024/02/13 08:48:13;;;;;;;5.83;2.40;;;5.90;7.80;;;;;;5011657;28;20473;-67
2024/02/13 08:50:40;;;;;;;6.70;2.83;;;5.90;7.80;;;;;;5012441;28;20449;-68
2024/02/13 08:53:06;;;;;;;9.63;3.13;;;5.90;8.00;;;;;;5011737;28;20180;-67
2024/02/13 08:55:31;;;;;;;4.17;2.03;;;6.00;7.90;;;;;;5012250;28;20415;-67
2024/02/13 08:57:57;;;;;;;3.50;2.00;;;6.00;7.60;;;;;;5012098;28;20282;-67
2024/02/13 09:00:23;;;;;;;5.73;2.33;;;6.10;5.60;;;;;;5012161;28;20188;-68
2024/02/13 09:02:49;;;;;;;3.13;1.50;;;6.10;3.50;;;;;;5011869;28;20909;-68
2024/02/13 09:05:14;;;;;;;7.17;2.77;;;6.20;2.80;;;;;;5011805;28;20169;-69
2024/02/13 09:07:41;;;;;;;6.50;4.00;;;6.20;5.80;;;;;;5011537;28;20678;-68
2024/02/13 09:10:11;;;;;;;9.93;4.03;;;6.20;7.20;;;;;;5011079;28;20732;-69
2024/02/13 09:12:40;;;;;;;5.40;3.10;;;6.30;7.00;;;;;;4993754;28;20466;-68
2024/02/13 09:15:11;;;;;;;8.20;3.77;;;6.30;7.40;;;;;;5011276;28;20438;-68
2024/02/13 09:17:41;;;;;;;10.67;2.87;;;6.30;5.80;;;;;;5010746;28;20415;-69
2024/02/13 09:20:07;;;;;;;3.23;2.00;;;6.40;5.00;;;;;;5011293;28;20621;-68
2024/02/13 09:22:33;;;;;;;5.63;3.40;;;6.50;3.70;;;;;;5011184;28;20757;-68
2024/02/13 09:24:58;;;;;;;6.47;2.37;;;6.50;3.70;;;;;;5011003;28;20442;-69
2024/02/13 09:27:24;;;;;;;14.20;3.70;;;6.60;3.80;;;;;;5011053;28;20275;-69
2024/02/13 09:29:49;;;;;;;4.77;2.60;;;6.80;2.30;;;;;;5011170;28;20194;-68
2024/02/13 09:32:15;;;;;;;5.50;2.40;;;7.10;1.90;;;;;;5011351;28;20326;-67
2024/02/13 09:34:42;;;;;;;5.33;2.40;;;7.20;1.00;;;;;;5010904;28;20256;-68
2024/02/13 09:37:09;;;;;;;6.00;2.27;;;7.40;1.00;;;;;;5010867;28;20572;-69
2024/02/13 09:39:35;;;;;;;6.67;3.00;;;7.60;1.00;;;;;;5011178;28;20513;-68
2024/02/13 09:42:03;;;;;;;6.33;3.10;;;7.80;1.00;;;;;;5014255;28;20604;-68
2024/02/13 09:44:28;;;;;;;5.37;2.50;;;7.90;1.00;;;;;;5014551;28;20771;-68
2024/02/13 09:46:54;;;;;;;5.87;2.27;;;8.00;1.00;;;;;;5014289;28;20429;-68
2024/02/13 09:49:21;;;;;;;3.30;2.30;;;8.10;1.00;;;;;;5013862;28;20211;-68
2024/02/13 09:51:50;;;;;;;4.17;1.83;;;8.20;1.00;;;;;;5014132;28;20543;-69
2024/02/13 09:54:18;;;;;;;4.80;3.30;;;8.20;1.00;;;;;;5013846;28;20414;-69
2024/02/13 09:56:44;;;;;;;3.30;2.10;;;8.10;1.00;;;;;;5013795;28;20948;-68
2024/02/13 09:59:11;;;;;;;7.67;3.50;;;8.10;1.00;;;;;;5013612;28;20950;-67
2024/02/13 10:01:38;;;;;;;7.03;3.57;;;8.10;1.00;;;;;;5014041;28;20465;-68
2024/02/13 10:04:04;;;;;;;3.60;2.27;;;8.10;1.00;;;;;;4995922;28;20543;-68
2024/02/13 10:06:29;;;;;;;4.20;2.10;;;8.20;1.00;;;;;;5014118;28;20959;-67
2024/02/13 10:08:55;;;;;;;4.63;2.13;;;8.20;1.00;;;;;;5013285;28;20448;-67
2024/02/13 10:11:40;;;;;;;3.37;1.97;;;8.30;1.00;;;;;;4995848;28;20242;-68
2024/02/13 10:14:16;;;;;;;5.80;3.13;;;8.40;1.00;;;;;;5013647;28;20586;-68
2024/02/13 10:16:42;;;;;;;3.10;1.90;;;8.50;1.00;;;;;;4995705;28;20787;-68
2024/02/13 10:19:08;;;;;;;2.70;1.60;;;8.60;1.00;;;;;;5013158;28;20430;-67
2024/02/13 10:21:35;;;;;;;2.87;1.37;;;8.80;1.00;;;;;;5013444;28;20210;-68
2024/02/13 10:24:11;;;;;;;5.80;1.60;;;8.90;1.00;;;;;;5013463;28;20172;-69
2024/02/13 10:26:37;;;;;;;3.07;1.63;;;9.00;1.00;;;;;;5013438;28;20434;-68
2024/02/13 10:29:03;;;;;;;5.00;2.47;;;9.10;1.00;;;;;;5013201;28;20441;-68
2024/02/13 10:31:34;;;;;;;3.00;1.43;;;9.00;1.00;;;;;;5013154;28;20411;-68
2024/02/13 10:34:03;;;;;;;2.47;1.67;;;9.00;1.00;;;;;;5012826;28;20179;-68
2024/02/13 10:36:31;;;;;;;7.53;2.03;;;9.10;1.00;;;;;;5013467;28;20411;-68
2024/02/13 10:39:03;;;;;;;14.53;2.67;;;9.10;1.00;;;;;;5012777;28;20568;-68
2024/02/13 10:41:33;;;;;;;3.10;1.60;;;9.20;1.00;;;;;;5012748;28;20451;-69
2024/02/13 10:43:59;;;;;;;4.53;1.57;;;9.40;1.00;;;;;;5012639;28;20420;-69
2024/02/13 10:46:28;;;;;;;2.60;1.47;;;9.60;1.00;;;;;;5012832;28;20951;-69
2024/02/13 10:49:08;;;;;;;8.23;1.50;;;9.80;1.00;;;;;;5012652;28;20460;-68
2024/02/13 10:51:37;;;;;;;4.40;1.50;;;9.90;1.00;;;;;;5013544;28;20501;-68
2024/02/13 10:54:06;;;;;;;3.77;2.10;;;10.10;1.00;;;;;;5012745;28;20419;-69
2024/02/13 10:56:35;;;;;;;4.23;1.83;;;10.30;1.00;;;;;;5012865;28;20443;-68
2024/02/13 10:59:02;;;;;;;6.67;2.63;;;10.70;1.00;;;;;;5012996;28;20439;-68
2024/02/13 11:01:31;;;;;;;4.23;1.67;;;10.90;1.00;;;;;;4994838;28;20463;-68
2024/02/13 11:03:58;;;;;;;2.33;1.40;;;10.90;1.00;;;;;;5012482;28;21010;-68
2024/02/13 11:06:24;;;;;;;2.20;1.20;;;10.70;1.00;;;;;;5012552;28;20506;-69
2024/02/13 11:08:50;;;;;;;2.43;1.63;;;10.80;1.00;;;;;;5012489;28;20486;-68
2024/02/13 11:11:22;;;;;;;4.43;1.70;;;10.80;1.00;;;;;;5012600;28;20951;-68
2024/02/13 11:13:49;;;;;;;2.07;1.47;;;10.70;1.00;;;;;;5012301;28;20188;-69
2024/02/13 11:16:15;;;;;;;3.37;1.70;;;10.70;1.00;;;;;;5012421;28;20470;-68
2024/02/13 11:18:48;;;;;;;2.40;1.60;;;10.80;1.00;;;;;;5012206;28;20519;-68
2024/02/13 11:21:25;;;;;;;3.13;1.97;;;11.10;1.00;;;;;;5012021;28;20466;-67
2024/02/13 11:23:55;;;;;;;3.13;1.80;;;11.30;1.00;;;;;;5012095;28;20508;-67
2024/02/13 11:26:21;;;;;;;4.67;2.50;;;11.60;1.00;;;;;;5012171;28;20756;-68
2024/02/13 11:28:48;;;;;;;2.80;2.00;;;11.90;1.00;;;;;;5011731;28;20435;-68
2024/02/13 11:31:15;;;;;;;2.53;1.77;;;11.70;1.00;;;;;;5012016;28;20185;-67
2024/02/13 11:34:09;;;;;;;7.20;2.63;;;11.40;1.00;;;;;;4994493;28;20454;-68
2024/02/13 11:36:35;;;;;;;3.83;2.50;;;11.30;1.00;;;;;;5011906;28;20521;-68
2024/02/13 11:39:08;;;;;;;3.23;2.30;;;11.10;1.00;;;;;;5011671;28;20462;-68
2024/02/13 11:41:34;;;;;;;2.00;1.77;;;11.10;1.00;;;;;;5011820;28;20475;-68
2024/02/13 11:44:14;;;;;;;2.63;1.80;;;10.90;1.00;;;;;;5012614;28;20407;-67
2024/02/13 11:46:54;;;;;;;2.47;1.57;;;10.90;1.00;;;;;;5012032;28;20412;-67
2024/02/13 11:49:19;;;;;;;2.50;1.50;;;11.00;1.00;;;;;;5011357;28;20453;-68
2024/02/13 11:51:46;;;;;;;2.07;1.87;;;11.00;1.00;;;;;;5011782;28;20411;-68
2024/02/13 11:54:12;;;;;;;3.73;1.80;;;11.00;1.00;;;;;;5011878;28;20187;-68
2024/02/13 11:56:38;;;;;;;2.30;1.53;;;11.10;1.00;;;;;;5012001;28;20422;-69
2024/02/13 11:59:07;;;;;;;2.27;1.67;;;11.20;1.00;;;;;;5011953;28;20458;-69
2024/02/13 12:01:36;;;;;;;2.80;2.33;;;11.60;1.00;;;;;;5012232;28;20534;-68
2024/02/13 12:04:02;;;;;;;2.30;1.60;;;11.70;1.00;;;;;;5010781;28;20926;-67
2024/02/13 12:06:28;;;;;;;5.13;2.07;;;11.50;1.00;;;;;;5011973;28;20427;-68
2024/02/13 12:08:54;;;;;;;3.23;1.90;;;11.80;1.00;;;;;;5011825;28;20427;-67
2024/02/13 12:11:20;;;;;;;3.17;2.37;;;12.00;1.00;;;;;;5011645;28;20214;-67
2024/02/13 12:13:46;;;;;;;2.50;1.57;;;11.90;1.00;;;;;;5011989;28;20594;-67
2024/02/13 12:16:14;;;;;;;4.90;2.13;;;12.00;1.00;;;;;;5011333;28;20477;-68
2024/02/13 12:18:42;;;;;;;3.13;2.20;;;12.00;1.00;;;;;;5011115;28;20445;-68
2024/02/13 12:21:12;;;;;;;2.87;2.10;;;11.90;1.00;;;;;;5011041;28;20461;-68
2024/02/13 12:23:38;;;;;;;2.50;1.90;;;11.50;1.00;;;;;;5012487;28;20411;-68
2024/02/13 12:26:06;;;;;;;3.67;2.60;;;11.00;1.00;;;;;;5015260;28;20528;-69
2024/02/13 12:28:34;;;;;;;3.40;2.57;;;11.00;1.00;;;;;;4995702;28;20444;-68
2024/02/13 12:31:02;;;;;;;3.67;2.37;;;10.90;1.00;;;;;;5010868;28;20418;-68
2024/02/13 12:33:28;;;;;;;4.57;1.83;;;10.90;1.00;;;;;;5011260;28;20564;-68
2024/02/13 12:36:08;;;;;;;3.27;1.83;;;10.90;1.00;;;;;;5009719;28;20772;-68
2024/02/13 12:38:38;;;;;;;3.80;1.80;;;10.90;1.00;;;;;;4993197;28;20463;-68
2024/02/13 12:41:04;;;;;;;1.90;1.30;;;10.80;1.00;;;;;;5011229;28;20477;-70
2024/02/13 12:43:33;;;;;;;3.70;1.70;;;10.90;1.00;;;;;;5011251;28;20769;-69
2024/02/13 12:46:02;;;;;;;7.40;2.03;;;10.40;1.00;;;;;;5010991;28;20506;-68
2024/02/13 12:48:31;;;;;;;6.40;2.30;;;10.20;1.00;;;;;;4995831;28;20480;-68
2024/02/13 12:50:58;;;;;;;5.00;1.87;;;10.20;1.00;;;;;;4992090;28;20423;-68
2024/02/13 12:53:25;;;;;;;2.30;1.60;;;10.10;1.00;;;;;;4988345;28;20970;-68
2024/02/13 12:55:52;;;;;;;2.00;1.57;;;10.20;1.00;;;;;;4973213;28;20420;-68
2024/02/13 12:58:21;;;;;;;2.27;1.53;;;10.20;1.00;;;;;;4992078;28;20447;-67